Time;durP1;ratioP1;P1;durP2;ratioP2;P2;SDS_P1;SDS_P2;PMS_P1;PMS_P2;Temp;Humidity;BMP_temperature;BMP_pressure;BME280_temperature;BME280_humidity;BME280_pressure;Samples;Min_cycle;Max_cycle;Signal;HPM_P1;HPM_P2
2022/04/08 00:00:41;;;;;;;1.13;0.20;;;;;;;-148.16;100.00;58328.31;5093261;28;20509;-57
2022/04/08 00:03:26;;;;;;;0.10;0.10;;;;;;;-148.16;100.00;58328.31;5093049;28;20110;-55
2022/04/08 00:06:11;;;;;;;0.10;0.10;;;;;;;-148.16;100.00;58328.31;5093396;28;20051;-56
2022/04/08 00:08:55;;;;;;;2.05;0.20;;;;;;;-148.16;100.00;58328.31;5093492;28;20048;-56
2022/04/08 00:11:40;;;;;;;0.28;0.10;;;;;;;-148.16;100.00;58328.31;5092745;28;20048;-57
2022/04/08 00:14:24;;;;;;;0.20;0.05;;;;;;;-148.16;100.00;58328.31;5093185;28;20040;-57
2022/04/08 00:17:09;;;;;;;0.08;0.00;;;;;;;-148.16;100.00;58328.31;5092838;28;20062;-53
2022/04/08 00:19:54;;;;;;;0.60;0.10;;;;;;;-148.16;100.00;58328.31;5077745;28;20073;-58
2022/04/08 00:22:40;;;;;;;0.93;0.10;;;;;;;-148.16;100.00;58328.31;5092126;28;20138;-57
2022/04/08 00:25:25;;;;;;;0.40;0.10;;;;;;;-148.16;100.00;58328.31;5092884;28;20044;-58
2022/04/08 00:28:10;;;;;;;0.35;0.10;;;;;;;-148.16;100.00;58328.31;5092959;28;20051;-58
2022/04/08 00:30:57;;;;;;;0.17;0.10;;;;;;;-148.16;100.00;58328.31;5077280;28;20478;-57
2022/04/08 00:33:41;;;;;;;0.13;0.13;;;;;;;-148.16;100.00;58328.31;5077353;28;20089;-57
2022/04/08 00:36:26;;;;;;;0.10;0.00;;;;;;;-148.16;100.00;58328.31;5092618;28;20047;-55
2022/04/08 00:39:13;;;;;;;0.22;0.10;;;;;;;-148.16;100.00;58328.31;5077556;28;20112;-56
2022/04/08 00:42:01;;;;;;;0.30;0.00;;;;;;;-148.16;100.00;58328.31;5092755;28;20040;-56
2022/04/08 00:44:45;;;;;;;0.00;0.00;;;;;;;-148.16;100.00;58328.31;5076962;28;20489;-54
2022/04/08 00:47:31;;;;;;;0.57;0.00;;;;;;;-148.16;100.00;58328.31;5077577;28;20048;-56
2022/04/08 00:50:19;;;;;;;0.57;0.10;;;;;;;-148.16;100.00;58328.31;5092260;28;20052;-58
2022/04/08 00:53:05;;;;;;;0.08;0.08;;;;;;;-148.16;100.00;58328.31;5092131;28;20051;-56
2022/04/08 00:55:49;;;;;;;0.20;0.00;;;;;;;-148.16;100.00;58328.31;5063191;28;20040;-58
2022/04/08 00:58:36;;;;;;;0.65;0.10;;;;;;;-148.16;100.00;58328.31;5092513;28;20475;-56
2022/04/08 01:01:23;;;;;;;3.35;0.10;;;;;;;-148.16;100.00;58328.31;5077486;28;20044;-56
2022/04/08 01:04:08;;;;;;;0.52;0.10;;;;;;;-148.16;100.00;58328.31;5077077;28;20051;-56
2022/04/08 01:06:54;;;;;;;0.10;0.00;;;;;;;-148.16;100.00;58328.31;5092513;28;20524;-56
2022/04/08 01:09:39;;;;;;;0.10;0.00;;;;;;;-148.16;100.00;58328.31;5077648;28;20048;-57
2022/04/08 01:12:24;;;;;;;0.10;0.00;;;;;;;-148.16;100.00;58328.31;5077307;28;20043;-56
2022/04/08 01:15:09;;;;;;;0.75;0.00;;;;;;;-148.16;100.00;58328.31;5091874;28;20055;-57
2022/04/08 01:17:54;;;;;;;0.08;0.00;;;;;;;-148.16;100.00;58328.31;5092310;28;20040;-57
2022/04/08 01:20:39;;;;;;;1.38;0.20;;;;;;;-148.16;100.00;58328.31;5092299;28;20033;-56
2022/04/08 01:23:24;;;;;;;0.20;0.05;;;;;;;-148.16;100.00;58328.31;5077214;28;20506;-56
2022/04/08 01:26:11;;;;;;;1.25;0.10;;;;;;;-148.16;100.00;58328.31;5092015;28;20036;-56
2022/04/08 01:28:56;;;;;;;0.40;0.40;;;;;;;-148.16;100.00;58328.31;5076998;28;20072;-57
2022/04/08 01:31:44;;;;;;;1.20;0.10;;;;;;;-148.16;100.00;58328.31;5092220;28;20067;-56
2022/04/08 01:34:28;;;;;;;0.10;0.00;;;;;;;-148.16;100.00;58328.31;5066569;28;20049;-55
2022/04/08 01:37:14;;;;;;;0.17;0.00;;;;;;;-148.16;100.00;58328.31;5055670;28;20052;-57
2022/04/08 01:39:58;;;;;;;1.15;0.05;;;;;;;-148.16;100.00;58328.31;5055749;28;20045;-57
2022/04/08 01:42:43;;;;;;;0.00;0.00;;;;;;;-148.16;100.00;58328.31;5055496;28;20048;-57
2022/04/08 01:45:28;;;;;;;0.00;0.00;;;;;;;-148.16;100.00;58328.31;5026498;28;20446;-54
2022/04/08 01:48:13;;;;;;;0.10;0.10;;;;;;;-148.16;100.00;58328.31;5079148;28;20044;-57
2022/04/08 01:50:57;;;;;;;0.55;0.10;;;;;;;-148.16;100.00;58328.31;5104943;28;20083;-58
2022/04/08 01:53:42;;;;;;;1.95;0.40;;;;;;;-148.16;100.00;58328.31;5116265;28;20081;-58
2022/04/08 01:56:27;;;;;;;0.10;0.00;;;;;;;-148.16;100.00;58328.31;5100609;28;20039;-58
2022/04/08 01:59:12;;;;;;;0.30;0.00;;;;;;;-148.16;100.00;58328.31;5115835;28;20032;-55
2022/04/08 02:01:59;;;;;;;0.98;0.10;;;;;;;-148.16;100.00;58328.31;5115974;28;20043;-57
2022/04/08 02:04:44;;;;;;;2.85;0.13;;;;;;;-148.16;100.00;58328.31;5115656;28;20035;-55
2022/04/08 02:07:28;;;;;;;1.42;0.10;;;;;;;-148.16;100.00;58328.31;5115792;28;20046;-57
2022/04/08 02:10:13;;;;;;;0.47;0.08;;;;;;;-148.16;100.00;58328.31;5115775;28;20043;-58
2022/04/08 02:12:57;;;;;;;2.50;0.30;;;;;;;-148.16;100.00;58328.31;5115757;28;20055;-58
2022/04/08 02:15:42;;;;;;;3.03;0.25;;;;;;;-148.16;100.00;58328.31;5115666;28;20043;-57
2022/04/08 02:18:27;;;;;;;2.72;0.13;;;;;;;-148.16;100.00;58328.31;5115696;28;20047;-56
2022/04/08 02:21:12;;;;;;;0.70;0.20;;;;;;;-148.16;100.00;58328.31;5099919;28;20066;-57
2022/04/08 02:23:57;;;;;;;1.00;0.30;;;;;;;-148.16;100.00;58328.31;5115647;28;20047;-56
2022/04/08 02:26:42;;;;;;;2.33;0.35;;;;;;;-148.16;100.00;58328.31;5115159;28;20051;-57
2022/04/08 02:29:27;;;;;;;0.45;0.08;;;;;;;-148.16;100.00;58328.31;5115446;28;20047;-57
2022/04/08 02:32:12;;;;;;;2.25;0.20;;;;;;;-148.16;100.00;58328.31;5115762;28;20047;-56
2022/04/08 02:34:56;;;;;;;1.35;0.10;;;;;;;-148.16;100.00;58328.31;5099466;28;20071;-56
2022/04/08 02:37:41;;;;;;;1.10;0.20;;;;;;;-148.16;100.00;58328.31;5099874;28;20057;-55
2022/04/08 02:40:26;;;;;;;0.95;0.20;;;;;;;-148.16;100.00;58328.31;5115493;28;20441;-55
2022/04/08 02:43:11;;;;;;;2.72;0.30;;;;;;;-148.16;100.00;58328.31;5099774;28;20073;-56
2022/04/08 02:45:56;;;;;;;1.45;0.20;;;;;;;-148.16;100.00;58328.31;5099776;28;20047;-57
2022/04/08 02:48:41;;;;;;;2.50;0.20;;;;;;;-148.16;100.00;58328.31;5115121;28;20035;-57
2022/04/08 02:51:28;;;;;;;1.20;0.25;;;;;;;-148.16;100.00;58328.31;5115278;28;20048;-56
2022/04/08 02:54:15;;;;;;;1.95;0.15;;;;;;;-148.16;100.00;58328.31;5097067;28;20043;-58
2022/04/08 02:56:59;;;;;;;0.82;0.10;;;;;;;-148.16;100.00;58328.31;5099521;28;20046;-57
2022/04/08 02:59:44;;;;;;;1.20;0.20;;;;;;;-148.16;100.00;58328.31;5099356;28;20085;-57
2022/04/08 03:02:28;;;;;;;0.88;0.10;;;;;;;-148.16;100.00;58328.31;5092621;28;20069;-57
2022/04/08 03:05:15;;;;;;;1.13;0.15;;;;;;;-148.16;100.00;58328.31;5094306;28;20432;-61
2022/04/08 03:07:59;;;;;;;1.67;0.30;;;;;;;-148.16;100.00;58328.31;5079119;28;20048;-57
2022/04/08 03:10:44;;;;;;;2.08;0.30;;;;;;;-148.16;100.00;58328.31;5090953;28;20101;-57
2022/04/08 03:13:29;;;;;;;0.70;0.17;;;;;;;-148.16;100.00;58328.31;5086592;28;20075;-60
2022/04/08 03:16:14;;;;;;;1.30;0.35;;;;;;;-148.16;100.00;58328.31;5063562;28;20062;-58
2022/04/08 03:18:59;;;;;;;1.67;0.15;;;;;;;-148.16;100.00;58328.31;5063493;28;20040;-56
2022/04/08 03:21:44;;;;;;;1.95;0.22;;;;;;;-148.16;100.00;58328.31;5108338;28;20038;-55
2022/04/08 03:24:30;;;;;;;1.73;0.50;;;;;;;-148.16;100.00;58328.31;5100655;28;20086;-57
2022/04/08 03:27:16;;;;;;;1.55;0.10;;;;;;;-148.16;100.00;58328.31;5073554;28;20079;-56
2022/04/08 03:30:00;;;;;;;0.68;0.30;;;;;;;-148.16;100.00;58328.31;5073548;28;20117;-57
2022/04/08 03:32:45;;;;;;;2.58;0.40;;;;;;;-148.16;100.00;58328.31;5073592;28;20459;-57
2022/04/08 03:35:30;;;;;;;0.98;0.20;;;;;;;-148.16;100.00;58328.31;5073517;28;20445;-57
2022/04/08 03:38:15;;;;;;;1.98;0.20;;;;;;;-148.16;100.00;58328.31;5073473;28;20044;-57
2022/04/08 03:41:00;;;;;;;3.60;0.20;;;;;;;-148.16;100.00;58328.31;5073217;28;20044;-57
2022/04/08 03:43:45;;;;;;;0.93;0.20;;;;;;;-148.16;100.00;58328.31;5073282;28;20052;-57
2022/04/08 03:46:29;;;;;;;2.28;0.45;;;;;;;-148.16;100.00;58328.31;5058565;28;20036;-57
2022/04/08 03:49:22;;;;;;;1.23;0.10;;;;;;;-148.16;100.00;58328.31;5046490;28;20041;-56
2022/04/08 03:52:10;;;;;;;0.63;0.20;;;;;;;-148.16;100.00;58328.31;5057996;28;20063;-56
2022/04/08 03:54:55;;;;;;;1.55;0.20;;;;;;;-148.16;100.00;58328.31;5072969;28;20036;-55
2022/04/08 03:57:39;;;;;;;3.40;0.40;;;;;;;-148.16;100.00;58328.31;5057683;28;20044;-57
2022/04/08 04:00:24;;;;;;;1.95;0.32;;;;;;;-148.16;100.00;58328.31;5073017;28;20051;-56
2022/04/08 04:03:09;;;;;;;2.30;0.25;;;;;;;-148.16;100.00;58328.31;5057491;28;20111;-56
2022/04/08 04:05:54;;;;;;;3.60;0.40;;;;;;;-148.16;100.00;58328.31;5057777;28;20468;-56
2022/04/08 04:08:38;;;;;;;3.17;0.40;;;;;;;-148.16;100.00;58328.31;5057783;28;20048;-57
2022/04/08 04:11:23;;;;;;;7.63;0.88;;;;;;;-148.16;100.00;58328.31;5072818;28;20051;-55
2022/04/08 04:14:08;;;;;;;1.55;0.32;;;;;;;-148.16;100.00;58328.31;5072440;28;20041;-56
2022/04/08 04:16:52;;;;;;;1.85;0.28;;;;;;;-148.16;100.00;58328.31;5072451;28;20399;-56
2022/04/08 04:19:37;;;;;;;0.65;0.20;;;;;;;-148.16;100.00;58328.31;5072830;28;20136;-56
2022/04/08 04:22:22;;;;;;;2.00;0.40;;;;;;;-148.16;100.00;58328.31;5090672;28;20071;-55
2022/04/08 04:25:07;;;;;;;1.42;0.30;;;;;;;-148.16;100.00;58328.31;5071570;28;20115;-53
2022/04/08 04:27:52;;;;;;;2.97;0.38;;;;;;;-148.16;100.00;58328.31;5071875;28;20041;-54
2022/04/08 04:30:37;;;;;;;2.42;0.40;;;;;;;-148.16;100.00;58328.31;5056677;28;20245;-53
2022/04/08 04:33:21;;;;;;;1.95;0.43;;;;;;;-148.16;100.00;58328.31;5071391;28;20036;-54
2022/04/08 04:36:06;;;;;;;2.40;0.32;;;;;;;-148.16;100.00;58328.31;5056589;28;20090;-55
2022/04/08 04:38:51;;;;;;;1.55;0.32;;;;;;;-148.16;100.00;58328.31;5071558;28;20041;-53
2022/04/08 04:41:36;;;;;;;2.25;0.47;;;;;;;-148.16;100.00;58328.31;5071823;28;20040;-52
2022/04/08 04:44:20;;;;;;;0.95;0.25;;;;;;;-148.16;100.00;58328.31;5042099;28;20051;-53
2022/04/08 04:47:05;;;;;;;3.50;0.30;;;;;;;-148.16;100.00;58328.31;5057145;28;20086;-56
2022/04/08 04:49:50;;;;;;;1.42;0.20;;;;;;;-148.16;100.00;58328.31;5056601;28;20047;-53
2022/04/08 04:52:35;;;;;;;1.27;0.50;;;;;;;-148.16;100.00;58328.31;5092611;28;20044;-56
2022/04/08 04:55:20;;;;;;;4.15;0.55;;;;;;;-148.16;100.00;58328.31;5077238;28;20475;-56
2022/04/08 04:58:05;;;;;;;2.33;0.32;;;;;;;-148.16;100.00;58328.31;5092423;28;20044;-56
2022/04/08 05:00:50;;;;;;;2.35;0.40;;;;;;;-148.16;100.00;58328.31;5092206;28;20097;-55
2022/04/08 05:03:35;;;;;;;1.40;0.30;;;;;;;-148.16;100.00;58328.31;5092383;28;20036;-56
2022/04/08 05:06:20;;;;;;;3.30;0.35;;;;;;;-148.16;100.00;58328.31;5092245;28;20109;-54
2022/04/08 05:09:05;;;;;;;1.58;0.40;;;;;;;-148.16;100.00;58328.31;5081300;28;20051;-52
2022/04/08 05:11:50;;;;;;;2.35;0.25;;;;;;;-148.16;100.00;58328.31;5081174;28;20400;-54
2022/04/08 05:14:35;;;;;;;2.95;0.50;;;;;;;-148.16;100.00;58328.31;5081067;28;20122;-55
2022/04/08 05:17:20;;;;;;;1.95;0.40;;;;;;;-148.16;100.00;58328.31;5096182;28;20503;-57
2022/04/08 05:20:06;;;;;;;1.50;0.40;;;;;;;-148.16;100.00;58328.31;5081427;28;20052;-56
2022/04/08 05:22:50;;;;;;;2.90;0.40;;;;;;;-148.16;100.00;58328.31;5100952;28;20479;-55
2022/04/08 05:25:35;;;;;;;4.25;0.60;;;;;;;-148.16;100.00;58328.31;5116754;28;20054;-61
2022/04/08 05:28:20;;;;;;;1.90;0.57;;;;;;;-148.16;100.00;58328.31;5116120;28;20055;-55
2022/04/08 05:31:05;;;;;;;2.83;0.40;;;;;;;-148.16;100.00;58328.31;5100035;28;20051;-51
2022/04/08 05:33:50;;;;;;;3.72;0.50;;;;;;;-148.16;100.00;58328.31;5116475;28;20104;-54
2022/04/08 05:36:34;;;;;;;0.93;0.25;;;;;;;-148.16;100.00;58328.31;5086177;28;20044;-57
2022/04/08 05:39:19;;;;;;;2.03;0.50;;;;;;;-148.16;100.00;58328.31;5115930;28;20500;-50
2022/04/08 05:42:05;;;;;;;3.50;0.32;;;;;;;-148.16;100.00;58328.31;5100603;28;20039;-57
2022/04/08 05:44:50;;;;;;;3.72;0.73;;;;;;;-148.16;100.00;58328.31;5100532;28;20489;-54
2022/04/08 05:47:35;;;;;;;2.30;0.30;;;;;;;-148.16;100.00;58328.31;5116063;28;20420;-47
2022/04/08 05:50:20;;;;;;;1.20;0.35;;;;;;;-148.16;100.00;58328.31;5115386;28;20060;-49
2022/04/08 05:53:05;;;;;;;1.95;0.20;;;;;;;-148.16;100.00;58328.31;5115894;28;20040;-54
2022/04/08 05:55:49;;;;;;;4.38;0.32;;;;;;;-148.16;100.00;58328.31;5100809;28;20512;-49
2022/04/08 05:58:34;;;;;;;3.08;1.42;;;;;;;-148.16;100.00;58328.31;5075925;28;20032;-50
2022/04/08 06:01:19;;;;;;;0.93;0.20;;;;;;;-148.16;100.00;58328.31;5074814;28;20052;-48
2022/04/08 06:04:03;;;;;;;1.88;0.30;;;;;;;-148.16;100.00;58328.31;5075155;28;20055;-51
2022/04/08 06:06:48;;;;;;;1.98;0.32;;;;;;;-148.16;100.00;58328.31;5075133;28;20450;-50
2022/04/08 06:09:33;;;;;;;0.68;0.20;;;;;;;-148.16;100.00;58328.31;5074754;28;20048;-46
2022/04/08 06:12:18;;;;;;;0.77;0.38;;;;;;;-148.16;100.00;58328.31;5074464;28;20098;-49
2022/04/08 06:15:03;;;;;;;0.70;0.20;;;;;;;-148.16;100.00;58328.31;5059336;28;20102;-46
2022/04/08 06:17:48;;;;;;;1.08;0.30;;;;;;;-148.16;100.00;58328.31;5074319;28;20052;-48
2022/04/08 06:20:32;;;;;;;2.58;0.50;;;;;;;-148.16;100.00;58328.31;5078313;28;20051;-45
2022/04/08 06:23:17;;;;;;;1.58;0.40;;;;;;;-148.16;100.00;58328.31;5074629;28;20064;-49
2022/04/08 06:26:02;;;;;;;3.47;0.40;;;;;;;-148.16;100.00;58328.31;5074367;28;20047;-46
2022/04/08 06:28:46;;;;;;;2.15;0.30;;;;;;;-148.16;100.00;58328.31;5074153;28;20075;-46
2022/04/08 06:31:32;;;;;;;0.82;0.28;;;;;;;-148.16;100.00;58328.31;5074324;28;20040;-47
2022/04/08 06:34:17;;;;;;;0.60;0.43;;;;;;;-148.16;100.00;58328.31;5059152;28;20513;-48
2022/04/08 06:37:02;;;;;;;2.40;0.28;;;;;;;-148.16;100.00;58328.31;5044627;28;20048;-48
2022/04/08 06:39:47;;;;;;;1.60;0.40;;;;;;;-148.16;100.00;58328.31;5073644;28;20044;-46
2022/04/08 06:42:32;;;;;;;0.95;0.40;;;;;;;-148.16;100.00;58328.31;5047862;28;20475;-48
2022/04/08 06:45:17;;;;;;;0.95;0.70;;;;;;;-148.16;100.00;58328.31;5059046;28;20045;-46
2022/04/08 06:48:02;;;;;;;0.93;0.30;;;;;;;-148.16;100.00;58328.31;5074251;28;20442;-49
2022/04/08 06:50:47;;;;;;;1.42;0.40;;;;;;;-148.16;100.00;58328.31;5073806;28;20118;-48
2022/04/08 06:53:34;;;;;;;3.70;0.43;;;;;;;-148.16;100.00;58328.31;5073626;28;20039;-46
2022/04/08 06:56:19;;;;;;;1.73;0.47;;;;;;;-148.16;100.00;58328.31;5058746;28;20115;-47
2022/04/08 06:59:04;;;;;;;3.03;0.70;;;;;;;-148.16;100.00;58328.31;5058153;28;20032;-48
2022/04/08 07:01:49;;;;;;;1.27;0.20;;;;;;;-148.16;100.00;58328.31;5056698;28;20044;-47
2022/04/08 07:04:37;;;;;;;1.35;0.20;;;;;;;-148.16;100.00;58328.31;5073705;28;20040;-45
2022/04/08 07:07:27;;;;;;;0.95;0.40;;;;;;;-148.16;100.00;58328.31;5058220;28;20086;-46
2022/04/08 07:10:13;;;;;;;1.80;0.30;;;;;;;-148.16;100.00;58328.31;5073239;28;20157;-48
2022/04/08 07:12:58;;;;;;;1.40;0.30;;;;;;;-148.16;100.00;58328.31;5074017;28;20154;-47
2022/04/08 07:15:42;;;;;;;2.47;0.40;;;;;;;-148.16;100.00;58328.31;5074056;28;20044;-49
2022/04/08 07:18:27;;;;;;;1.33;0.25;;;;;;;-148.16;100.00;58328.31;5058403;28;20689;-45
2022/04/08 07:21:12;;;;;;;1.08;0.25;;;;;;;-148.16;100.00;58328.31;5093723;28;20043;-49
2022/04/08 07:23:57;;;;;;;0.88;0.38;;;;;;;-148.16;100.00;58328.31;5114617;28;20051;-47
2022/04/08 07:26:42;;;;;;;4.15;1.15;;;;;;;-148.16;100.00;58328.31;5113691;28;20119;-54
2022/04/08 07:29:27;;;;;;;2.70;0.30;;;;;;;-148.16;100.00;58328.31;5085635;28;20044;-58
2022/04/08 07:32:11;;;;;;;0.60;0.40;;;;;;;-148.16;100.00;58328.31;5092524;28;20043;-59
2022/04/08 07:34:56;;;;;;;0.95;0.10;;;;;;;-148.16;100.00;58328.31;5090341;28;20036;-54
2022/04/08 07:37:43;;;;;;;1.67;0.35;;;;;;;-148.16;100.00;58328.31;5087793;28;20040;-66
2022/04/08 07:40:27;;;;;;;0.57;0.25;;;;;;;-148.16;100.00;58328.31;5079555;28;20252;-55
2022/04/08 07:43:14;;;;;;;1.92;0.32;;;;;;;-148.16;100.00;58328.31;5086588;28;20044;-59
2022/04/08 07:45:58;;;;;;;0.32;0.20;;;;;;;-148.16;100.00;58328.31;5093342;28;20055;-60
2022/04/08 07:48:43;;;;;;;3.65;0.43;;;;;;;-148.16;100.00;58328.31;5078235;28;20047;-59
2022/04/08 07:51:28;;;;;;;0.52;0.20;;;;;;;-148.16;100.00;58328.31;5071303;28;20071;-54
2022/04/08 07:54:12;;;;;;;1.10;0.28;;;;;;;-148.16;100.00;58328.31;5072247;28;20040;-63
2022/04/08 07:56:57;;;;;;;1.40;0.30;;;;;;;-148.16;100.00;58328.31;5066373;28;20047;-61
2022/04/08 07:59:42;;;;;;;0.43;0.10;;;;;;;-148.16;100.00;58328.31;5058424;28;20044;-60
2022/04/08 08:02:29;;;;;;;0.57;0.10;;;;;;;-148.16;100.00;58328.31;5071936;28;20399;-61
2022/04/08 08:05:14;;;;;;;2.40;0.20;;;;;;;-148.16;100.00;58328.31;5072901;28;20044;-59
2022/04/08 08:08:01;;;;;;;1.02;0.28;;;;;;;-148.16;100.00;58328.31;5073058;28;20040;-59
2022/04/08 08:10:46;;;;;;;1.58;0.52;;;;;;;-148.16;100.00;58328.31;5072326;28;20040;-60
2022/04/08 08:13:31;;;;;;;1.00;0.40;;;;;;;-148.16;100.00;58328.31;5050588;28;20040;-55
2022/04/08 08:16:15;;;;;;;0.38;0.15;;;;;;;-148.16;100.00;58328.31;5051896;28;20049;-54
2022/04/08 08:19:00;;;;;;;1.70;0.32;;;;;;;-148.16;100.00;58328.31;5052818;28;20107;-55
2022/04/08 08:21:45;;;;;;;0.85;0.25;;;;;;;-148.16;100.00;58328.31;5066295;28;20060;-54
2022/04/08 08:24:29;;;;;;;1.17;0.38;;;;;;;-148.16;100.00;58328.31;5073512;28;20044;-50
2022/04/08 08:27:14;;;;;;;1.92;0.50;;;;;;;-148.16;100.00;58328.31;5071629;28;20492;-50
2022/04/08 08:29:59;;;;;;;5.10;0.77;;;;;;;-148.16;100.00;58328.31;5072745;28;20036;-55
2022/04/08 08:32:49;;;;;;;2.35;0.25;;;;;;;-148.16;100.00;58328.31;5072169;28;20052;-53
2022/04/08 08:35:34;;;;;;;1.45;0.20;;;;;;;-148.16;100.00;58328.31;5071478;28;20067;-55
2022/04/08 08:38:19;;;;;;;2.30;0.30;;;;;;;-148.16;100.00;58328.31;5072351;28;20044;-57
2022/04/08 08:41:06;;;;;;;1.60;0.28;;;;;;;-148.16;100.00;58328.31;5072370;28;20089;-55
2022/04/08 08:43:54;;;;;;;2.88;0.30;;;;;;;-148.16;100.00;58328.31;5072480;28;20111;-57
2022/04/08 08:46:40;;;;;;;1.95;0.55;;;;;;;-148.16;100.00;58328.31;5070910;28;20045;-56
2022/04/08 08:49:29;;;;;;;0.95;0.20;;;;;;;-148.16;100.00;58328.31;5068944;28;20068;-57
2022/04/08 08:52:14;;;;;;;1.88;0.40;;;;;;;-148.16;100.00;58328.31;5091210;28;20079;-59
2022/04/08 08:55:05;;;;;;;1.48;0.40;;;;;;;-148.16;100.00;58328.31;5091915;28;20095;-61
2022/04/08 08:57:51;;;;;;;1.30;0.30;;;;;;;-148.16;100.00;58328.31;5091612;28;20044;-62
2022/04/08 09:00:36;;;;;;;2.38;0.50;;;;;;;-148.16;100.00;58328.31;5076452;28;20134;-59
2022/04/08 09:03:28;;;;;;;1.52;0.63;;;;;;;-148.16;100.00;58328.31;5091459;28;20133;-56
2022/04/08 09:06:12;;;;;;;0.52;0.28;;;;;;;-148.16;100.00;58328.31;5091567;28;20109;-54
2022/04/08 09:08:58;;;;;;;0.77;0.30;;;;;;;-148.16;100.00;58328.31;5076518;28;20479;-54
2022/04/08 09:11:43;;;;;;;1.80;0.20;;;;;;;-148.16;100.00;58328.31;5076247;28;20074;-51
2022/04/08 09:14:34;;;;;;;1.25;0.22;;;;;;;-148.16;100.00;58328.31;5075680;28;20506;-53
2022/04/08 09:17:20;;;;;;;1.73;0.47;;;;;;;-148.16;100.00;58328.31;5091254;28;20097;-50
2022/04/08 09:20:06;;;;;;;8.60;0.40;;;;;;;-148.16;100.00;58328.31;5051042;28;20052;-48
2022/04/08 09:22:55;;;;;;;2.63;0.50;;;;;;;-148.16;100.00;58328.31;5073531;28;20082;-51
2022/04/08 09:25:41;;;;;;;1.15;0.28;;;;;;;-148.16;100.00;58328.31;5059184;28;20036;-50
2022/04/08 09:28:33;;;;;;;0.20;0.20;;;;;;;-148.16;100.00;58328.31;5069124;28;20052;-50
2022/04/08 09:31:20;;;;;;;0.43;0.10;;;;;;;-148.16;100.00;58328.31;5070887;28;20048;-49
2022/04/08 09:34:14;;;;;;;2.47;0.32;;;;;;;-148.16;100.00;58328.31;5055972;28;20094;-51
2022/04/08 09:37:04;;;;;;;2.17;0.50;;;;;;;-148.16;100.00;58328.31;5055691;28;20057;-52
2022/04/08 09:39:54;;;;;;;1.55;0.50;;;;;;;-148.16;100.00;58328.31;5040968;28;20139;-48
2022/04/08 09:42:46;;;;;;;1.90;0.40;;;;;;;-148.16;100.00;58328.31;5055414;28;20049;-50
2022/04/08 09:45:32;;;;;;;0.52;0.20;;;;;;;-148.16;100.00;58328.31;5055567;28;20055;-46
2022/04/08 09:48:17;;;;;;;2.72;0.30;;;;;;;-148.16;100.00;58328.31;5069707;28;20058;-45
2022/04/08 09:51:02;;;;;;;1.88;0.20;;;;;;;-148.16;100.00;58328.31;5070789;28;20106;-39
2022/04/08 09:53:55;;;;;;;1.55;0.30;;;;;;;-148.16;100.00;58328.31;5071230;28;20048;-48
2022/04/08 09:56:43;;;;;;;1.00;0.50;;;;;;;-148.16;100.00;58328.31;5045613;28;20052;-51
2022/04/08 09:59:36;;;;;;;2.28;0.40;;;;;;;-148.16;100.00;58328.31;5059715;28;20049;-49
2022/04/08 10:02:24;;;;;;;0.28;0.20;;;;;;;-148.16;100.00;58328.31;5045429;28;20067;-50
2022/04/08 10:05:10;;;;;;;1.48;0.25;;;;;;;-148.16;100.00;58328.31;5058540;28;20044;-46
2022/04/08 10:07:56;;;;;;;1.67;0.35;;;;;;;-148.16;100.00;58328.31;5060224;28;20114;-48
2022/04/08 10:10:51;;;;;;;1.80;0.40;;;;;;;-148.16;100.00;58328.31;5075252;28;20043;-48
2022/04/08 10:13:41;;;;;;;1.75;0.57;;;;;;;-148.16;100.00;58328.31;5074963;28;20119;-49
2022/04/08 10:16:27;;;;;;;3.75;1.33;;;;;;;-148.16;100.00;58328.31;5074493;28;20055;-47
2022/04/08 10:19:13;;;;;;;11.07;4.60;;;;;;;-148.16;100.00;58328.31;5074061;28;20044;-48
2022/04/08 10:21:59;;;;;;;19.40;9.02;;;;;;;-148.16;100.00;58328.31;5107440;28;20771;-48
2022/04/08 10:24:55;;;;;;;5.03;2.17;;;;;;;-148.16;100.00;58328.31;5093313;28;20571;-47
2022/04/08 10:27:41;;;;;;;3.00;1.95;;;;;;;-148.16;100.00;58328.31;5078895;28;20036;-47
2022/04/08 10:30:26;;;;;;;7.07;3.13;;;;;;;-148.16;100.00;58328.31;5079251;28;20048;-49
2022/04/08 10:33:13;;;;;;;3.33;1.60;;;;;;;-148.16;100.00;58328.31;5094390;28;20048;-49
2022/04/08 10:36:03;;;;;;;5.40;1.83;;;;;;;-148.16;100.00;58328.31;5058938;28;20582;-53
2022/04/08 10:38:48;;;;;;;3.75;1.50;;;;;;;-148.16;100.00;58328.31;5074001;28;20114;-45
2022/04/08 10:41:46;;;;;;;2.33;1.00;;;;;;;-148.16;100.00;58328.31;5073872;28;20367;-45
2022/04/08 10:44:39;;;;;;;23.35;13.63;;;;;;;-148.16;100.00;58328.31;5073728;28;20048;-58
2022/04/08 10:47:24;;;;;;;5.95;2.40;;;;;;;-148.16;100.00;58328.31;5074001;28;20051;-52
2022/04/08 10:50:10;;;;;;;3.03;0.75;;;;;;;-148.16;100.00;58328.31;5044268;28;20045;-49
2022/04/08 10:53:12;;;;;;;3.30;0.75;;;;;;;-148.16;100.00;58328.31;5073459;28;20427;-51
2022/04/08 10:56:10;;;;;;;2.38;0.52;;;;;;;-148.16;100.00;58328.31;5058736;28;20045;-52
2022/04/08 10:58:59;;;;;;;3.85;1.67;;;;;;;-148.16;100.00;58328.31;5073576;28;20068;-46
2022/04/08 11:01:46;;;;;;;2.40;0.70;;;;;;;-148.16;100.00;58328.31;5058810;28;20045;-59
2022/04/08 11:04:32;;;;;;;3.72;1.00;;;;;;;-148.16;100.00;58328.31;5073853;28;20043;-56
2022/04/08 11:07:17;;;;;;;2.22;0.60;;;;;;;-148.16;100.00;58328.31;5058762;28;20059;-47
2022/04/08 11:10:03;;;;;;;1.17;0.43;;;;;;;-148.16;100.00;58328.31;5074022;28;20040;-50
2022/04/08 11:12:49;;;;;;;0.77;0.40;;;;;;;-148.16;100.00;58328.31;5031173;28;20040;-48
2022/04/08 11:15:34;;;;;;;4.03;1.95;;;;;;;-148.16;100.00;58328.31;5073431;28;20053;-53
2022/04/08 11:18:19;;;;;;;3.50;0.73;;;;;;;-148.16;100.00;58328.31;5073954;28;20064;-50
2022/04/08 11:21:03;;;;;;;3.35;0.80;;;;;;;-148.16;100.00;58328.31;5091566;28;20058;-50
2022/04/08 11:24:21;;;;;;;2.83;1.00;;;;;;;-148.16;100.00;58328.31;5099163;28;20058;-48
2022/04/08 11:27:05;;;;;;;2.78;0.60;;;;;;;-148.16;100.00;58328.31;5065244;28;20051;-52
2022/04/08 11:29:50;;;;;;;1.02;0.43;;;;;;;-148.16;100.00;58328.31;5114503;28;20501;-52
2022/04/08 11:32:39;;;;;;;2.03;0.60;;;;;;;-148.16;100.00;58328.31;5076104;28;20501;-46
2022/04/08 11:35:29;;;;;;;4.18;1.70;;;;;;;-148.16;100.00;58328.31;5073574;28;20045;-46
2022/04/08 11:38:18;;;;;;;4.07;1.38;;;;;;;-148.16;100.00;58328.31;5058536;28;20044;-51
2022/04/08 11:41:04;;;;;;;2.40;0.75;;;;;;;-148.16;100.00;58328.31;5058274;28;20048;-48
2022/04/08 11:43:49;;;;;;;4.60;1.85;;;;;;;-148.16;100.00;58328.31;5058467;28;20105;-51
2022/04/08 11:46:34;;;;;;;2.70;0.32;;;;;;;-148.16;100.00;58328.31;5041518;28;20121;-47
2022/04/08 11:49:19;;;;;;;0.80;0.30;;;;;;;-148.16;100.00;58328.31;5074164;28;20049;-47
2022/04/08 11:52:06;;;;;;;2.15;1.02;;;;;;;-148.16;100.00;58328.31;5073582;28;20102;-46
2022/04/08 11:54:50;;;;;;;1.75;0.85;;;;;;;-148.16;100.00;58328.31;5057809;28;20071;-48
2022/04/08 11:57:38;;;;;;;1.85;0.30;;;;;;;-148.16;100.00;58328.31;5058095;28;20045;-50
2022/04/08 12:00:30;;;;;;;4.97;0.98;;;;;;;-148.16;100.00;58328.31;5072958;28;20036;-49
2022/04/08 12:03:23;;;;;;;1.75;0.40;;;;;;;-148.16;100.00;58328.31;5072609;28;20045;-51
2022/04/08 12:06:08;;;;;;;2.58;0.38;;;;;;;-148.16;100.00;58328.31;5057634;28;20120;-47
2022/04/08 12:08:52;;;;;;;6.30;0.50;;;;;;;-148.16;100.00;58328.31;5057715;28;20045;-49
2022/04/08 12:11:39;;;;;;;0.82;0.30;;;;;;;-148.16;100.00;58328.31;5057799;28;20430;-50
2022/04/08 12:14:24;;;;;;;0.80;0.10;;;;;;;-148.16;100.00;58328.31;5071789;28;20780;-54
2022/04/08 12:17:08;;;;;;;3.00;0.32;;;;;;;-148.16;100.00;58328.31;5070366;28;20123;-56
2022/04/08 12:19:53;;;;;;;0.85;0.30;;;;;;;-148.16;100.00;58328.31;5054875;28;20036;-49
2022/04/08 12:22:38;;;;;;;4.63;1.40;;;;;;;-148.16;100.00;58328.31;5055470;28;20051;-52
2022/04/08 12:25:23;;;;;;;1.83;0.25;;;;;;;-148.16;100.00;58328.31;5063838;28;20075;-49
2022/04/08 12:28:12;;;;;;;0.90;0.22;;;;;;;-148.16;100.00;58328.31;5081940;28;20036;-53
2022/04/08 12:31:00;;;;;;;1.05;0.30;;;;;;;-148.16;100.00;58328.31;5076868;28;20051;-49
2022/04/08 12:33:45;;;;;;;1.17;0.20;;;;;;;-148.16;100.00;58328.31;5056699;28;20052;-54